Algona, IA

2:18 PM CDT on July 13, 2014 (GMT -0500)
Algona Municipal (KAXA) Elev 1220 ft | 43.08 °N, 94.27 °W | Change Station

Current weather conditions updated 23 minutes ago

Clear
Clear
79 °F
Feels Like 79 °F
N
6
Wind Variable Wind from NW
Gusts 13 mph

Today is forecast to be Warmer than yesterday.

Today
High -- | Low -- °F
--% Chance of Precip.
Yesterday
High -- | Low -- °F
Precip. -- in
5:49 AM 8:55 PM
Full, 97% visible
Pressure 30.00 in
Visibility 10.0 miles
Clouds Clear
Dew Point 63 °F
Humidity 57%
Rainfall 0.00 in
Snow Depth Not available.
UV 11 out of 12
Pollen 3.10 out of 12
Air Quality Not available.
Flu Activity Sporadic
METAR KAXA 131855Z AUTO 31005G11KT 10SM CLR 26/17 A3000 RMK AO2

More Conditions Fewer Conditions

Pressure 30.00 in
Visibility 10.0 miles
Clouds Clear
Dew Point 63 °F
Humidity 57%
Rainfall 0.00 in
Snow Depth Not available.
UV 11 out of 12
Pollen 3.10 out of 12
Air Quality Not available.
Flu Activity Sporadic
METAR KAXA 131855Z AUTO 31005G11KT 10SM CLR 26/17 A3000 RMK AO2

More Conditions Fewer Conditions

10-Day Weather Forecast

Almanac

Astronomy

Jul. 13, 2014 Rise Set
Actual Time 5:49 AM CDT 8:55 PM CDT
Civil Twilight 5:15 AM CDT 9:29 PM CDT
Nautical Twilight 4:31 AM CDT 10:13 PM CDT
Astronomical Twilight 3:38 AM CDT 11:05 PM CDT
Moon 9:39 PM CDT 7:24 AM CDT
Length of Visible Light 16h 14m
Length of Day
15h 05m
Tomorrow will be 1m 27s shorter.
Full, 97% of the Moon is Illuminated
Today
Full
Jul 18
Last Quarter
Jul 26
New
Aug 3
First Quarter
Aug 10
Full

Today's Extremes

State Highs State Lows

Community

WunderPhotos

Upload Photos

1,733,340 photos uploaded!

Nearby

Snow Depth

Station Depth Elevation
No new snow has been reported.

Earthquake Activity

City Distance Mag. Time & Date
No recent earthquake activity has been reported nearby.
Minimum magnitude displayed is 2.5.

Coastal Water Temperatures

Place Temperature
No Stations Reporting

Nearby Weather Stations

Station Location Temp. Heat Index Dew Point Humidity Wind Precip. Elev Updated Type
Farm Acreage, Bode, IA 82.1 °F 84 °F 66 °F 58% North  at  6.0 mph 0.00 in / hr 1130 ft 2:16 PM CDT Normal
SW Ottosen, OTTOSEN, IA 83.5 °F 85 °F 65 °F 54% West  at  4.5 mph 0.00 in / hr 1175 ft 2:18 PM CDT Rapid Fire
Erin Township Trading Post, Britt, IA 78.6 °F 80 °F 64 °F 61% WNW  at  2.0 mph 0.00 in / hr 1178 ft 2:14 PM CDT Normal
273 1st ST SW, Britt, IA 80.8 °F 82 °F 63 °F 55% NW  at  2.0 mph 0.00 in / hr 1214 ft 2:18 PM CDT Normal
Dakota City, IA 82.4 °F 84 °F 65 °F 55% NE  at  1.0 mph 0.00 in / hr 1130 ft 2:11 PM CDT Normal
Mallard, Mallard, IA 82.6 °F 84 °F 64 °F 53% SSW  at  6.0 mph 0.00 in / hr 1224 ft 2:14 PM CDT Normal

Show More Stations Show Fewer Stations